Time;durP1;ratioP1;P1;durP2;ratioP2;P2;SDS_P1;SDS_P2;PMS_P1;PMS_P2;Temp;Humidity;BMP_temperature;BMP_pressure;BME280_temperature;BME280_humidity;BME280_pressure;Samples;Min_cycle;Max_cycle;Signal;HPM_P1;HPM_P2
2022/10/10 00:00:09;;;;;;;7.25;3.30;;;;;;;5.40;63.96;100056.63;10389270;28;20569;-63
2022/10/10 00:05:11;;;;;;;8.30;3.67;;;;;;;5.37;64.04;100053.31;10389988;28;20045;-63
2022/10/10 00:10:13;;;;;;;7.15;3.40;;;;;;;5.28;64.24;100056.22;10389390;28;20064;-63
2022/10/10 00:15:15;;;;;;;7.13;3.65;;;;;;;5.26;63.83;100058.03;10390194;28;20053;-63
2022/10/10 00:20:18;;;;;;;6.40;3.70;;;;;;;5.07;64.21;100054.38;10388206;28;20588;-64
2022/10/10 00:25:20;;;;;;;6.35;3.92;;;;;;;5.04;64.77;100049.31;10389409;28;20041;-63
2022/10/10 00:30:22;;;;;;;7.70;3.72;;;;;;;5.05;64.58;100041.50;10389937;28;20534;-67
2022/10/10 00:35:23;;;;;;;8.50;3.75;;;;;;;5.10;64.57;100038.75;10387762;28;20057;-63
2022/10/10 00:40:25;;;;;;;8.15;4.22;;;;;;;5.03;64.31;100032.06;10388973;28;20409;-63
2022/10/10 00:45:29;;;;;;;6.07;3.08;;;;;;;5.06;64.38;100026.78;10386608;28;20240;-64
2022/10/10 00:50:34;;;;;;;9.93;3.90;;;;;;;5.08;64.23;100018.06;10388521;28;20053;-63
2022/10/10 00:55:36;;;;;;;8.10;3.80;;;;;;;5.05;64.18;100017.31;10387635;28;20056;-63
2022/10/10 01:00:38;;;;;;;8.07;3.63;;;;;;;5.01;64.55;100018.31;10381994;28;20497;-64
2022/10/10 01:05:42;;;;;;;7.97;4.40;;;;;;;4.97;64.26;100006.38;10386732;28;20060;-64
2022/10/10 01:10:49;;;;;;;7.43;3.90;;;;;;;4.86;64.54;100008.50;10385637;28;20064;-64
2022/10/10 01:16:14;;;;;;;5.95;3.20;;;;;;;4.78;64.86;100006.16;10385263;28;20045;-64
2022/10/10 01:21:39;;;;;;;5.75;3.67;;;;;;;4.67;64.40;100003.97;10385225;28;20517;-63
2022/10/10 01:27:02;;;;;;;6.57;3.60;;;;;;;4.61;64.73;100004.19;10383526;28;20053;-64
2022/10/10 01:32:21;;;;;;;6.32;3.78;;;;;;;4.65;64.74;99999.75;10384810;28;20049;-64
2022/10/10 01:37:40;;;;;;;9.35;4.03;;;;;;;4.57;64.93;99999.16;10384955;28;20536;-64
2022/10/10 01:42:53;;;;;;;8.68;4.50;;;;;;;4.42;64.72;99995.34;10384276;28;20049;-64
2022/10/10 01:47:57;;;;;;;12.20;4.60;;;;;;;4.36;64.77;99981.75;10385267;28;20057;-64
2022/10/10 01:53:29;;;;;;;6.03;3.70;;;;;;;4.32;64.88;99980.16;10384219;28;20057;-63
2022/10/10 01:58:51;;;;;;;7.78;3.75;;;;;;;4.37;64.85;99979.09;10381438;28;20060;-64
2022/10/10 02:04:26;;;;;;;9.00;3.60;;;;;;;4.43;64.98;99972.88;10389986;28;20060;-64
2022/10/10 02:09:34;;;;;;;9.98;4.00;;;;;;;4.42;64.55;99969.44;10391569;28;20503;-64
2022/10/10 02:14:44;;;;;;;8.40;3.80;;;;;;;4.41;64.64;99965.16;10393108;28;20049;-64
2022/10/10 02:19:53;;;;;;;5.53;3.95;;;;;;;4.43;64.80;99967.72;10391416;28;20501;-63
2022/10/10 02:24:55;;;;;;;41.47;4.40;;;;;;;4.32;64.27;99965.47;10390566;28;20500;-63
2022/10/10 02:29:59;;;;;;;7.57;4.70;;;;;;;4.11;64.66;99960.19;10391166;28;21161;-64
2022/10/10 02:35:13;;;;;;;5.38;3.55;;;;;;;4.10;65.23;99964.50;10391851;28;20049;-64
2022/10/10 02:40:20;;;;;;;4.82;3.47;;;;;;;4.27;64.85;99966.53;10392458;28;20059;-63
2022/10/10 02:45:22;;;;;;;7.05;3.92;;;;;;;4.33;64.60;99969.75;10389645;28;20050;-63
2022/10/10 02:50:25;;;;;;;7.35;3.33;;;;;;;4.33;64.54;99969.75;10391855;28;20375;-63
2022/10/10 02:55:26;;;;;;;11.77;3.47;;;;;;;4.16;64.45;99959.13;10390689;28;20061;-63
2022/10/10 03:00:29;;;;;;;5.32;3.58;;;;;;;4.09;64.49;99949.03;10390772;28;20461;-64
2022/10/10 03:05:30;;;;;;;8.50;3.40;;;;;;;3.89;64.90;99947.09;10386640;28;20537;-64
2022/10/10 03:10:32;;;;;;;6.53;3.25;;;;;;;3.93;65.04;99950.41;10385106;28;20081;-63
2022/10/10 03:15:34;;;;;;;6.18;2.90;;;;;;;3.97;64.86;99963.19;10385461;28;20412;-63
2022/10/10 03:20:35;;;;;;;6.20;3.72;;;;;;;4.05;64.79;99961.22;10367484;28;20448;-64
2022/10/10 03:25:41;;;;;;;24.50;4.75;;;;;;;4.06;64.55;99957.75;10391623;28;20771;-63
2022/10/10 03:30:43;;;;;;;16.60;4.30;;;;;;;3.92;64.83;99953.91;10390800;28;20437;-64
2022/10/10 03:35:45;;;;;;;33.78;3.95;;;;;;;3.89;65.03;99957.44;10392045;28;20056;-64
2022/10/10 03:40:46;;;;;;;37.40;3.92;;;;;;;3.85;65.18;99955.84;10392581;28;20307;-63
2022/10/10 03:45:49;;;;;;;11.18;3.58;;;;;;;3.91;64.94;99954.78;10391183;28;20077;-64
2022/10/10 03:50:50;;;;;;;21.92;4.38;;;;;;;3.96;65.02;99958.09;10391151;28;20057;-63
2022/10/10 03:55:53;;;;;;;100.68;5.38;;;;;;;3.88;65.08;99958.34;10391129;28;20060;-63
2022/10/10 04:00:56;;;;;;;406.58;12.65;;;;;;;3.86;64.96;99960.13;10391647;28;20595;-64
2022/10/10 04:05:58;;;;;;;7.05;4.07;;;;;;;3.68;65.12;99961.50;10390881;28;20049;-63
2022/10/10 04:11:00;;;;;;;5.25;3.55;;;;;;;3.66;65.08;99965.06;10391289;28;20053;-63
2022/10/10 04:16:02;;;;;;;8.18;3.72;;;;;;;3.74;64.95;99973.41;10390076;28;20049;-63
2022/10/10 04:21:04;;;;;;;30.17;5.25;;;;;;;3.79;64.84;99982.72;10390459;28;20045;-63
2022/10/10 04:26:08;;;;;;;246.70;8.82;;;;;;;3.80;65.00;99981.00;10389354;28;20577;-63
2022/10/10 04:31:09;;;;;;;148.05;6.22;;;;;;;3.73;65.23;99972.56;10391442;28;20053;-63
2022/10/10 04:36:11;;;;;;;50.55;4.68;;;;;;;3.76;65.17;99974.22;10390391;28;20045;-63
2022/10/10 04:41:12;;;;;;;24.75;4.72;;;;;;;3.77;64.94;99971.59;10388580;28;20037;-63
2022/10/10 04:46:14;;;;;;;7.60;3.85;;;;;;;3.81;64.86;99972.31;10387204;28;20080;-63
2022/10/10 04:51:16;;;;;;;27.20;3.80;;;;;;;3.86;65.05;99970.47;10389658;28;20069;-62
2022/10/10 04:56:18;;;;;;;31.92;5.75;;;;;;;3.84;64.87;99962.75;10388845;28;20046;-63
2022/10/10 05:01:19;;;;;;;37.60;6.72;;;;;;;3.64;64.98;99969.44;10389148;28;20049;-63
2022/10/10 05:06:21;;;;;;;49.13;5.85;;;;;;;3.65;65.25;99963.34;10387922;28;20041;-63
2022/10/10 05:11:23;;;;;;;11.00;4.45;;;;;;;3.63;65.25;99962.56;10387752;28;20244;-63
2022/10/10 05:16:24;;;;;;;29.50;6.50;;;;;;;3.66;65.08;99959.88;10387293;28;20524;-62
2022/10/10 05:21:27;;;;;;;17.90;5.25;;;;;;;3.70;64.96;99967.47;10387960;28;20064;-63
2022/10/10 05:26:28;;;;;;;14.63;5.72;;;;;;;3.68;64.76;99966.69;10387816;28;20053;-62
2022/10/10 05:31:30;;;;;;;17.17;4.97;;;;;;;3.62;64.94;99971.22;10387890;28;20414;-63
2022/10/10 05:36:32;;;;;;;9.07;4.95;;;;;;;3.63;65.06;99973.75;10387476;28;20470;-62
2022/10/10 05:41:34;;;;;;;6.50;4.15;;;;;;;3.68;64.60;99971.03;10384660;28;20050;-63
2022/10/10 05:46:35;;;;;;;9.73;4.28;;;;;;;3.66;64.85;99988.34;10386251;28;20049;-63
2022/10/10 05:51:37;;;;;;;6.82;3.88;;;;;;;3.70;64.94;99990.75;10387118;28;20390;-62
2022/10/10 05:56:38;;;;;;;7.63;4.72;;;;;;;3.65;64.70;99982.31;10386679;28;20402;-63
2022/10/10 06:01:40;;;;;;;7.40;3.95;;;;;;;3.76;64.77;99994.91;10386757;28;20065;-62
2022/10/10 06:06:42;;;;;;;7.03;4.20;;;;;;;3.87;64.60;99992.84;10385887;28;20053;-62
2022/10/10 06:11:43;;;;;;;9.57;4.28;;;;;;;3.91;64.53;99988.41;10383252;28;20865;-63
2022/10/10 06:16:45;;;;;;;9.00;4.20;;;;;;;4.03;64.38;99988.88;10385652;28;20049;-64
2022/10/10 06:21:47;;;;;;;8.65;4.10;;;;;;;4.15;64.36;99991.06;10385009;28;20389;-63
2022/10/10 06:26:49;;;;;;;6.55;4.00;;;;;;;4.26;64.01;99990.72;10399103;28;20049;-64
2022/10/10 06:31:51;;;;;;;5.95;3.90;;;;;;;4.36;64.02;99986.94;10384874;28;20045;-63
2022/10/10 06:36:54;;;;;;;6.22;3.88;;;;;;;4.52;63.70;99993.28;10378659;28;20056;-63
2022/10/10 06:41:55;;;;;;;7.30;4.32;;;;;;;4.65;63.66;100002.31;10383416;28;20494;-63
2022/10/10 06:46:57;;;;;;;8.50;5.20;;;;;;;4.67;63.72;100001.38;10384644;28;20055;-63
2022/10/10 06:51:59;;;;;;;7.80;4.55;;;;;;;4.64;63.67;100018.75;10382483;28;20068;-65
2022/10/10 06:57:00;;;;;;;4.75;3.42;;;;;;;4.64;63.92;100013.56;10385847;28;20049;-64
2022/10/10 07:02:02;;;;;;;7.65;4.05;;;;;;;4.81;63.88;100013.00;10391954;28;20059;-65
2022/10/10 07:07:04;;;;;;;8.10;3.90;;;;;;;5.01;63.51;100013.13;10392168;28;20290;-65
2022/10/10 07:12:06;;;;;;;6.65;3.55;;;;;;;5.15;63.48;100014.34;10391205;28;20521;-64
2022/10/10 07:17:07;;;;;;;8.02;3.80;;;;;;;5.24;63.48;100023.53;10391706;28;20052;-65
2022/10/10 07:22:09;;;;;;;7.53;4.03;;;;;;;5.32;63.56;100018.91;10390923;28;20846;-65
2022/10/10 07:27:11;;;;;;;8.18;4.57;;;;;;;5.53;63.33;100020.72;10389323;28;20046;-63
2022/10/10 07:32:12;;;;;;;6.90;4.30;;;;;;;5.83;63.02;100031.66;10390797;28;20045;-64
2022/10/10 07:37:14;;;;;;;7.00;4.13;;;;;;;6.23;62.95;100024.81;10385956;28;20052;-64
2022/10/10 07:42:16;;;;;;;5.25;3.80;;;;;;;6.65;62.48;100011.84;10390269;28;20060;-64
2022/10/10 07:47:18;;;;;;;9.20;5.50;;;;;;;6.78;62.45;100015.59;10388969;28;20146;-64
2022/10/10 07:52:19;;;;;;;6.47;4.35;;;;;;;7.14;62.16;100018.38;10386812;28;20045;-63
2022/10/10 07:57:21;;;;;;;12.00;5.05;;;;;;;7.61;61.34;100011.00;10388372;28;20049;-63
2022/10/10 08:02:23;;;;;;;8.45;4.60;;;;;;;7.94;61.05;100006.81;10389751;28;20124;-63
2022/10/10 08:07:25;;;;;;;5.97;4.32;;;;;;;8.30;60.32;100009.44;10388309;28;20524;-63
2022/10/10 08:12:27;;;;;;;6.53;4.57;;;;;;;8.48;60.09;100004.16;10387611;28;20042;-63
2022/10/10 08:17:29;;;;;;;11.45;4.60;;;;;;;9.00;59.07;100002.31;10387823;28;20053;-63
2022/10/10 08:22:30;;;;;;;8.68;5.00;;;;;;;9.11;58.81;99994.78;10390064;28;20132;-64
2022/10/10 08:27:32;;;;;;;8.95;5.05;;;;;;;9.16;58.61;99991.91;10386622;28;20368;-64
2022/10/10 08:32:34;;;;;;;9.93;5.45;;;;;;;9.06;59.38;99988.97;10387638;28;20433;-63
2022/10/10 08:37:35;;;;;;;10.77;5.35;;;;;;;9.28;58.53;99993.91;10388547;28;20049;-71
2022/10/10 08:42:41;;;;;;;10.10;5.50;;;;;;;9.73;58.19;99977.53;10387754;28;20056;-71
2022/10/10 08:48:06;;;;;;;8.75;5.65;;;;;;;9.90;57.85;99966.97;10388648;28;20232;-71
2022/10/10 08:53:12;;;;;;;11.98;6.47;;;;;;;9.78;57.13;99972.88;10390142;28;20046;-71
2022/10/10 08:58:16;;;;;;;10.48;6.20;;;;;;;9.95;57.16;99960.56;10388269;28;20053;-71
2022/10/10 09:03:25;;;;;;;8.07;5.22;;;;;;;10.18;56.85;99947.03;10384555;28;20045;-72
2022/10/10 09:08:32;;;;;;;7.93;5.60;;;;;;;10.30;56.70;99958.53;10388946;28;20107;-73
2022/10/10 09:13:38;;;;;;;12.02;6.43;;;;;;;10.60;56.43;99953.28;10387853;28;20052;-72
2022/10/10 09:19:04;;;;;;;10.10;6.45;;;;;;;10.74;55.56;99954.16;10386562;28;20045;-72
2022/10/10 09:24:15;;;;;;;11.52;5.85;;;;;;;11.06;55.48;99947.84;10388261;28;20053;-72
2022/10/10 09:29:38;;;;;;;12.48;6.10;;;;;;;11.34;54.40;99941.72;10387787;28;20520;-72
2022/10/10 09:34:45;;;;;;;9.85;5.65;;;;;;;11.42;54.96;99956.97;10388053;28;20091;-72
2022/10/10 09:39:56;;;;;;;10.35;6.10;;;;;;;11.53;54.75;99954.50;10386831;28;20179;-72
2022/10/10 09:44:58;;;;;;;11.00;5.72;;;;;;;11.62;54.84;99953.94;10387602;28;20053;-72
2022/10/10 09:49:59;;;;;;;12.32;5.20;;;;;;;11.79;55.04;99951.06;10387570;28;20057;-72
2022/10/10 09:55:13;;;;;;;12.35;5.38;;;;;;;11.84;55.62;99951.63;10387275;28;20053;-72
2022/10/10 10:00:18;;;;;;;15.50;5.90;;;;;;;11.83;55.21;99947.31;10386812;28;20081;-72
2022/10/10 10:05:25;;;;;;;12.18;5.88;;;;;;;11.86;55.15;99954.97;10384306;28;20045;-72
2022/10/10 10:10:29;;;;;;;12.00;5.20;;;;;;;12.42;54.81;99952.13;10387062;28;20529;-72
2022/10/10 10:15:31;;;;;;;11.65;5.00;;;;;;;12.78;54.06;99954.06;10384877;28;20397;-72
2022/10/10 10:20:36;;;;;;;11.80;4.85;;;;;;;12.91;54.50;99950.47;10386073;28;20049;-72
2022/10/10 10:25:38;;;;;;;10.25;4.75;;;;;;;13.21;54.12;99941.41;10386212;28;20049;-72
2022/10/10 10:30:42;;;;;;;9.35;4.40;;;;;;;13.58;53.44;99941.34;10384444;28;20474;-72
2022/10/10 10:36:00;;;;;;;9.65;4.20;;;;;;;13.83;53.09;99937.78;10380966;28;20049;-71
2022/10/10 10:41:22;;;;;;;9.70;4.78;;;;;;;13.97;52.85;99927.09;10384454;28;20076;-72
2022/10/10 10:47:02;;;;;;;9.70;4.60;;;;;;;13.99;53.19;99929.59;10382808;28;20049;-72
2022/10/10 10:52:48;;;;;;;13.13;5.00;;;;;;;14.14;53.19;99924.06;10385997;28;20081;-71
2022/10/10 10:58:05;;;;;;;14.82;4.85;;;;;;;14.38;53.73;99921.38;10368195;28;20057;-72
2022/10/10 11:03:39;;;;;;;12.00;5.32;;;;;;;14.59;53.86;99931.13;10383760;28;20056;-72
2022/10/10 11:09:05;;;;;;;8.13;4.57;;;;;;;14.76;53.35;99931.66;10383993;28;20201;-72
2022/10/10 11:14:39;;;;;;;10.68;4.10;;;;;;;14.99;53.35;99928.06;10383730;28;20045;-72
2022/10/10 11:19:55;;;;;;;12.85;4.30;;;;;;;15.36;53.63;99917.16;10383361;28;20052;-72
2022/10/10 11:25:00;;;;;;;10.57;3.75;;;;;;;15.74;53.78;99919.38;10383966;28;20091;-72
2022/10/10 11:30:25;;;;;;;11.27;3.78;;;;;;;16.10;53.62;99921.63;10383694;28;20046;-71
2022/10/10 11:35:52;;;;;;;7.40;3.50;;;;;;;16.40;53.09;99909.50;10382230;28;20484;-72
2022/10/10 11:41:11;;;;;;;12.43;3.38;;;;;;;16.65;52.52;99909.94;10383844;28;20467;-72
2022/10/10 11:46:26;;;;;;;8.07;3.13;;;;;;;16.95;52.24;99915.28;10391437;28;20045;-71
2022/10/10 11:51:57;;;;;;;9.98;3.17;;;;;;;17.38;51.52;99901.81;10392175;28;20386;-71
2022/10/10 11:57:22;;;;;;;9.85;3.20;;;;;;;17.78;51.23;99897.28;10391602;28;20719;-71
2022/10/10 12:02:35;;;;;;;11.10;3.20;;;;;;;17.84;50.21;99880.88;10391387;28;20057;-71
2022/10/10 12:07:45;;;;;;;10.52;3.70;;;;;;;18.10;50.13;99889.06;10388265;28;20046;-71
2022/10/10 12:12:51;;;;;;;7.00;3.15;;;;;;;18.21;49.67;99893.41;10391006;28;20140;-71
2022/10/10 12:17:53;;;;;;;11.55;2.80;;;;;;;18.34;48.48;99888.69;10390682;28;20448;-72
2022/10/10 12:23:13;;;;;;;8.60;2.70;;;;;;;18.28;47.80;99891.88;10390895;28;20821;-71
2022/10/10 12:28:15;;;;;;;11.23;3.00;;;;;;;18.42;48.47;99894.91;10390978;28;20061;-71
2022/10/10 12:33:43;;;;;;;9.52;2.72;;;;;;;18.56;47.59;99883.06;10388261;28;20494;-71
2022/10/10 12:39:00;;;;;;;7.75;2.78;;;;;;;18.42;46.46;99883.50;10390499;28;20041;-71
2022/10/10 12:44:17;;;;;;;9.82;2.58;;;;;;;18.38;45.79;99879.47;10389760;28;20084;-71
2022/10/10 12:49:25;;;;;;;10.13;2.33;;;;;;;18.61;45.71;99870.19;10388977;28;20413;-71
2022/10/10 12:54:32;;;;;;;9.25;2.58;;;;;;;18.83;45.41;99874.31;10389286;28;20065;-71
2022/10/10 12:59:35;;;;;;;13.85;3.20;;;;;;;18.87;43.98;99878.34;10388879;28;20076;-71
2022/10/10 13:04:41;;;;;;;10.45;2.90;;;;;;;19.02;42.66;99884.84;10387479;28;20058;-72
2022/10/10 13:09:46;;;;;;;9.00;2.65;;;;;;;18.97;42.68;99877.31;10386222;28;20049;-71
2022/10/10 13:14:48;;;;;;;16.73;2.80;;;;;;;18.90;42.75;99873.59;10388138;28;20390;-71
2022/10/10 13:19:51;;;;;;;11.85;2.72;;;;;;;19.14;42.70;99865.13;10388237;28;20436;-71
2022/10/10 13:24:53;;;;;;;14.32;2.83;;;;;;;19.20;42.84;99873.34;10387668;28;20102;-71
2022/10/10 13:29:55;;;;;;;11.77;2.80;;;;;;;19.23;42.78;99873.06;10408437;28;20048;-71
2022/10/10 13:35:12;;;;;;;15.27;3.10;;;;;;;19.32;41.35;99874.78;10381406;28;20088;-71
2022/10/10 13:40:16;;;;;;;21.35;3.15;;;;;;;19.57;41.99;99875.91;10379016;28;20048;-71
2022/10/10 13:45:21;;;;;;;13.50;2.92;;;;;;;19.51;42.13;99878.31;10384009;28;20054;-72
2022/10/10 13:50:35;;;;;;;14.90;3.00;;;;;;;19.51;42.17;99875.66;10369910;28;20061;-71
2022/10/10 13:55:37;;;;;;;27.58;4.10;;;;;;;19.44;42.59;99872.75;10380928;28;20058;-71
2022/10/10 14:00:39;;;;;;;16.67;3.40;;;;;;;19.59;42.33;99875.75;10374283;28;20049;-72
2022/10/10 14:05:43;;;;;;;12.60;3.10;;;;;;;19.69;41.91;99880.00;10378328;28;20053;-72
2022/10/10 14:11:15;;;;;;;19.73;3.97;;;;;;;19.68;40.52;99869.53;10373170;28;20041;-72
2022/10/10 14:16:16;;;;;;;20.15;3.35;;;;;;;19.81;41.37;99867.34;10380181;28;20552;-72
2022/10/10 14:21:18;;;;;;;21.88;3.65;;;;;;;19.54;40.38;99875.38;10375783;28;20045;-72
2022/10/10 14:26:20;;;;;;;17.70;3.80;;;;;;;19.43;41.03;99866.66;10376105;28;20611;-72
2022/10/10 14:31:22;;;;;;;18.60;3.65;;;;;;;19.59;40.95;99873.09;10375483;28;20045;-73
2022/10/10 14:36:27;;;;;;;22.25;3.83;;;;;;;19.60;39.94;99866.81;10378866;28;20046;-71
2022/10/10 14:41:28;;;;;;;22.48;3.40;;;;;;;19.45;40.40;99861.19;10376050;28;20442;-72
2022/10/10 14:46:30;;;;;;;19.27;3.97;;;;;;;19.16;40.33;99853.41;10367299;28;20053;-71
2022/10/10 14:51:37;;;;;;;20.33;3.75;;;;;;;19.00;40.73;99863.78;10381087;28;20693;-72
2022/10/10 14:56:44;;;;;;;21.92;3.90;;;;;;;19.09;40.95;99857.63;10376525;28;20053;-71
2022/10/10 15:02:06;;;;;;;26.17;3.72;;;;;;;19.10;41.56;99874.34;10383643;28;20147;-71
2022/10/10 15:07:10;;;;;;;17.90;5.05;;;;;;;19.24;41.23;99863.25;10383139;28;20553;-71
2022/10/10 15:12:15;;;;;;;19.02;3.83;;;;;;;19.48;40.55;99869.66;10384898;28;20053;-71
2022/10/10 15:17:17;;;;;;;18.98;3.55;;;;;;;19.69;41.05;99865.88;10384904;28;20446;-71
2022/10/10 15:22:18;;;;;;;16.10;3.75;;;;;;;19.43;41.05;99864.00;10391313;28;20057;-71
2022/10/10 15:27:20;;;;;;;23.35;3.88;;;;;;;19.23;41.67;99878.34;10393327;28;20056;-71
2022/10/10 15:32:22;;;;;;;19.40;4.03;;;;;;;19.11;42.64;99876.88;10391753;28;20187;-71
2022/10/10 15:37:26;;;;;;;15.13;3.42;;;;;;;19.04;42.39;99878.44;10392451;28;20052;-71
2022/10/10 15:42:30;;;;;;;21.92;3.90;;;;;;;18.73;42.50;99884.13;10391070;28;20493;-71
2022/10/10 15:47:32;;;;;;;18.98;3.58;;;;;;;18.70;42.73;99887.88;10391116;28;20056;-71
2022/10/10 15:52:34;;;;;;;20.17;4.25;;;;;;;18.54;42.88;99892.94;10388268;28;20226;-70
2022/10/10 15:57:36;;;;;;;22.20;4.10;;;;;;;18.46;43.49;99906.06;10384946;28;20042;-70
2022/10/10 16:02:37;;;;;;;17.60;3.80;;;;;;;18.34;43.84;99912.50;10369575;28;20053;-70
2022/10/10 16:07:39;;;;;;;18.83;3.67;;;;;;;18.22;43.94;99917.09;10389853;28;20492;-70
2022/10/10 16:12:48;;;;;;;19.17;3.87;;;;;;;18.05;44.96;99919.59;10380740;28;20417;-70
2022/10/10 16:17:50;;;;;;;22.67;4.18;;;;;;;17.74;45.47;99927.63;10389033;28;21060;-70
2022/10/10 16:22:52;;;;;;;20.98;4.43;;;;;;;17.55;47.05;99926.75;10389346;28;20072;-71
2022/10/10 16:27:53;;;;;;;18.00;4.25;;;;;;;17.41;47.07;99933.25;10386446;28;20049;-71
2022/10/10 16:32:55;;;;;;;17.98;3.40;;;;;;;17.27;47.43;99941.53;10379056;28;20096;-71
2022/10/10 16:37:59;;;;;;;20.38;3.63;;;;;;;17.20;47.00;99961.53;10384709;28;20045;-69
2022/10/10 16:43:00;;;;;;;20.75;4.07;;;;;;;17.10;47.99;99968.56;10386223;28;20103;-70
2022/10/10 16:48:02;;;;;;;16.38;4.13;;;;;;;17.04;48.64;99977.03;10384770;28;20060;-71
2022/10/10 16:53:04;;;;;;;21.73;3.92;;;;;;;16.94;49.39;99989.34;10385497;28;20473;-71
2022/10/10 16:58:06;;;;;;;23.60;4.68;;;;;;;16.85;48.96;100011.28;10385833;28;20049;-71
2022/10/10 17:03:08;;;;;;;18.05;3.60;;;;;;;16.74;47.43;100021.91;10388413;28;20060;-72
2022/10/10 17:08:11;;;;;;;17.33;3.70;;;;;;;16.82;48.08;100044.06;10387554;28;20046;-72
2022/10/10 17:13:13;;;;;;;18.63;3.67;;;;;;;16.72;50.07;100061.66;10377012;28;20312;-71
2022/10/10 17:18:16;;;;;;;26.33;5.07;;;;;;;16.22;52.70;100064.94;10385068;28;20049;-72
2022/10/10 17:23:18;;;;;;;19.27;4.40;;;;;;;15.95;54.79;100090.88;10382434;28;20501;-72
2022/10/10 17:28:19;;;;;;;16.33;4.53;;;;;;;15.60;56.44;100101.56;10383464;28;20048;-72
2022/10/10 17:33:22;;;;;;;18.27;4.35;;;;;;;15.31;57.96;100102.91;10386869;28;20145;-72
2022/10/10 17:38:24;;;;;;;17.08;4.50;;;;;;;15.16;58.98;100112.00;10386015;28;20271;-72
2022/10/10 17:43:40;;;;;;;15.32;3.97;;;;;;;15.03;59.41;100125.25;10385762;28;20112;-72
2022/10/10 17:48:42;;;;;;;15.98;4.18;;;;;;;14.74;60.91;100138.88;10385641;28;20498;-72
2022/10/10 17:53:43;;;;;;;16.35;4.32;;;;;;;14.66;61.34;100141.25;10385669;28;20042;-72
2022/10/10 17:58:46;;;;;;;18.70;4.50;;;;;;;14.51;62.39;100154.56;10368490;28;20077;-72
2022/10/10 18:03:48;;;;;;;22.02;4.30;;;;;;;14.50;61.78;100152.91;10375190;28;20473;-72
2022/10/10 18:08:52;;;;;;;19.25;4.40;;;;;;;14.56;62.54;100159.50;10385837;28;20498;-71
2022/10/10 18:13:58;;;;;;;16.05;4.43;;;;;;;14.43;63.01;100162.16;10386658;28;20406;-72
2022/10/10 18:19:04;;;;;;;20.48;5.22;;;;;;;14.50;62.90;100166.06;10385281;28;20141;-72
2022/10/10 18:24:06;;;;;;;21.13;4.55;;;;;;;14.46;63.63;100172.47;10385969;28;20045;-71
2022/10/10 18:29:08;;;;;;;18.52;4.20;;;;;;;14.40;63.67;100175.53;10384577;28;20050;-72
2022/10/10 18:34:10;;;;;;;20.98;4.65;;;;;;;14.40;64.13;100183.44;10384452;28;20041;-65
2022/10/10 18:39:14;;;;;;;21.10;4.30;;;;;;;14.36;64.01;100187.25;10379562;28;20049;-65
2022/10/10 18:44:17;;;;;;;20.25;5.30;;;;;;;14.35;64.47;100203.13;10382648;28;20078;-64
2022/10/10 18:49:19;;;;;;;16.13;4.60;;;;;;;14.37;64.64;100199.44;10380423;28;20053;-64
2022/10/10 18:54:20;;;;;;;22.60;4.90;;;;;;;14.53;64.32;100205.31;10383105;28;20398;-65
2022/10/10 18:59:22;;;;;;;21.08;5.30;;;;;;;14.56;64.73;100206.88;10384485;28;20041;-64
2022/10/10 19:04:24;;;;;;;19.30;4.78;;;;;;;14.65;64.54;100216.78;10384347;28;20057;-65
2022/10/10 19:09:25;;;;;;;17.15;5.45;;;;;;;14.68;64.65;100218.31;10384908;28;20057;-65
2022/10/10 19:14:27;;;;;;;20.85;6.07;;;;;;;14.69;64.96;100209.47;10384641;28;20515;-65
2022/10/10 19:19:29;;;;;;;18.63;5.55;;;;;;;14.69;64.66;100214.75;10382854;28;20045;-65
2022/10/10 19:24:31;;;;;;;22.73;4.95;;;;;;;14.72;64.82;100220.63;10383306;28;20065;-65
2022/10/10 19:29:33;;;;;;;19.77;5.00;;;;;;;14.73;64.87;100226.75;10384015;28;20072;-65
2022/10/10 19:34:36;;;;;;;17.33;4.82;;;;;;;14.76;64.59;100237.06;10384361;28;20049;-65
2022/10/10 19:39:38;;;;;;;24.23;5.13;;;;;;;14.71;64.65;100240.03;10383897;28;20049;-65
2022/10/10 19:44:39;;;;;;;19.48;5.03;;;;;;;14.71;64.68;100252.34;10382165;28;20053;-65
2022/10/10 19:49:41;;;;;;;18.38;4.93;;;;;;;14.67;65.06;100264.03;10378403;28;20052;-65
2022/10/10 19:54:43;;;;;;;18.40;5.72;;;;;;;14.66;65.18;100272.88;10381189;28;20528;-64
2022/10/10 19:59:44;;;;;;;20.60;6.60;;;;;;;14.71;64.90;100278.66;10380568;28;20056;-64
2022/10/10 20:04:46;;;;;;;18.15;5.10;;;;;;;14.63;65.24;100275.72;10384973;28;20057;-64
2022/10/10 20:09:49;;;;;;;19.05;5.18;;;;;;;14.59;65.17;100277.75;10388558;28;20279;-64
2022/10/10 20:14:51;;;;;;;18.65;5.30;;;;;;;14.62;64.91;100281.94;10388511;28;20049;-64
2022/10/10 20:19:53;;;;;;;23.02;5.38;;;;;;;14.51;65.36;100288.78;10385567;28;20045;-65
2022/10/10 20:24:54;;;;;;;22.92;5.47;;;;;;;14.43;65.70;100298.97;10387232;28;20053;-64
2022/10/10 20:29:56;;;;;;;16.77;5.57;;;;;;;14.43;65.54;100311.31;10389488;28;20068;-66
2022/10/10 20:34:57;;;;;;;18.83;5.47;;;;;;;14.48;65.49;100311.84;10386833;28;20056;-64
2022/10/10 20:39:59;;;;;;;17.02;5.95;;;;;;;14.39;65.33;100329.09;10387034;28;20053;-64
2022/10/10 20:45:01;;;;;;;20.60;6.15;;;;;;;14.21;65.39;100325.09;10387859;28;20049;-64
2022/10/10 20:50:03;;;;;;;20.15;5.97;;;;;;;13.92;65.32;100334.13;10386621;28;20057;-64
2022/10/10 20:55:05;;;;;;;16.58;6.30;;;;;;;13.75;65.82;100337.03;10385444;28;20053;-65
2022/10/10 21:00:07;;;;;;;20.73;6.80;;;;;;;13.59;65.75;100345.09;10385238;28;20722;-64
2022/10/10 21:05:08;;;;;;;18.00;6.10;;;;;;;13.40;66.15;100351.59;10387784;28;20049;-64
2022/10/10 21:10:10;;;;;;;19.88;6.38;;;;;;;13.26;66.42;100367.41;10386131;28;20045;-65
2022/10/10 21:15:12;;;;;;;20.88;7.05;;;;;;;13.10;66.56;100364.94;10384947;28;20041;-64
2022/10/10 21:20:13;;;;;;;19.50;6.82;;;;;;;13.00;66.64;100376.09;10384825;28;20037;-64
2022/10/10 21:25:15;;;;;;;17.92;6.78;;;;;;;12.87;67.17;100394.38;10373534;28;20049;-64
2022/10/10 21:30:17;;;;;;;22.98;7.63;;;;;;;12.80;67.05;100398.34;10369148;28;20050;-65
2022/10/10 21:35:18;;;;;;;20.45;8.80;;;;;;;13.00;66.59;100407.59;10368047;28;20052;-65
2022/10/10 21:40:20;;;;;;;20.38;8.35;;;;;;;13.27;65.97;100404.06;10386441;28;20072;-64
2022/10/10 21:45:22;;;;;;;16.50;7.72;;;;;;;13.44;65.91;100405.66;10385258;28;20053;-64
2022/10/10 21:50:23;;;;;;;15.70;7.15;;;;;;;13.44;65.89;100408.28;10386942;28;20056;-64
2022/10/10 21:55:26;;;;;;;15.63;7.00;;;;;;;13.50;65.75;100413.16;10374286;28;20304;-65
2022/10/10 22:00:28;;;;;;;18.33;8.25;;;;;;;13.48;65.53;100423.78;10384537;28;20080;-65
2022/10/10 22:05:29;;;;;;;21.33;8.32;;;;;;;13.55;65.68;100424.22;10383470;28;20046;-65
2022/10/10 22:10:33;;;;;;;15.75;7.45;;;;;;;13.57;65.69;100432.88;10383415;28;20057;-65
2022/10/10 22:15:34;;;;;;;15.93;6.88;;;;;;;13.55;65.67;100432.97;10383071;28;20057;-65
2022/10/10 22:20:36;;;;;;;18.83;9.82;;;;;;;13.55;65.67;100430.34;10383445;28;20038;-65
2022/10/10 22:25:43;;;;;;;22.33;11.80;;;;;;;13.59;65.37;100434.47;10383020;28;20406;-65
2022/10/10 22:30:45;;;;;;;19.30;12.43;;;;;;;13.61;65.23;100448.34;10382346;28;20049;-65
2022/10/10 22:35:47;;;;;;;20.83;12.93;;;;;;;13.64;64.84;100449.91;10382977;28;20233;-65
2022/10/10 22:40:48;;;;;;;16.80;9.07;;;;;;;13.47;65.04;100458.91;10382105;28;20037;-65
2022/10/10 22:45:50;;;;;;;18.05;10.30;;;;;;;13.24;65.28;100469.09;10383771;28;20060;-65
2022/10/10 22:51:04;;;;;;;23.05;16.05;;;;;;;13.02;65.51;100471.38;10382358;28;20064;-65
2022/10/10 22:56:07;;;;;;;24.30;17.23;;;;;;;12.94;65.92;100479.72;10382535;28;20049;-65
2022/10/10 23:01:16;;;;;;;27.40;18.65;;;;;;;12.99;66.03;100488.16;10383175;28;20528;-65
2022/10/10 23:06:18;;;;;;;21.30;17.40;;;;;;;13.05;66.03;100494.84;10379406;28;20521;-65
2022/10/10 23:11:20;;;;;;;23.05;17.67;;;;;;;13.16;65.69;100508.13;10381053;28;20882;-65
2022/10/10 23:16:21;;;;;;;20.42;15.82;;;;;;;13.30;65.51;100498.47;10381928;28;20053;-65
2022/10/10 23:21:23;;;;;;;24.98;15.82;;;;;;;13.36;65.55;100508.59;10383468;28;20073;-65
2022/10/10 23:26:25;;;;;;;14.80;11.73;;;;;;;13.40;65.23;100514.50;10381273;28;20057;-65